createdAt,value
2023-01-05T00:02:25.132Z,74.30
2023-01-05T00:04:55.370Z,74.30
2023-01-05T00:07:25.118Z,74.20
2023-01-05T00:09:57.333Z,74.30
2023-01-05T00:12:44.891Z,74.30
2023-01-05T00:15:35.330Z,74.50
2023-01-05T00:18:21.938Z,74.40
2023-01-05T00:21:13.451Z,74.50
2023-01-05T00:23:47.056Z,74.40
2023-01-05T00:26:16.094Z,74.40
2023-01-05T00:28:48.244Z,74.30
2023-01-05T00:31:22.399Z,74.30
2023-01-05T00:33:56.016Z,74.20
2023-01-05T00:36:28.624Z,74.10
2023-01-05T00:39:07.960Z,74.10
2023-01-05T00:41:37.211Z,74.10
2023-01-05T00:44:06.358Z,74.00
2023-01-05T00:46:35.598Z,74.10
2023-01-05T00:49:06.566Z,74.10
2023-01-05T00:51:38.539Z,74.00
2023-01-05T00:54:07.534Z,74.10
2023-01-05T00:56:37.062Z,74.40
2023-01-05T00:59:06.455Z,74.90
2023-01-05T01:01:38.885Z,75.00
2023-01-05T01:04:13.881Z,75.00
2023-01-05T01:06:44.950Z,75.00
2023-01-05T01:09:19.670Z,75.10
2023-01-05T01:14:19.842Z,75.40
2023-01-05T01:16:48.732Z,75.80
2023-01-05T01:19:19.363Z,76.30
2023-01-05T01:21:51.575Z,76.80
2023-01-05T01:24:26.671Z,77.00
2023-01-05T01:26:59.608Z,77.20
2023-01-05T01:29:31.246Z,77.70
2023-01-05T01:32:01.095Z,77.80
2023-01-05T01:34:32.297Z,77.70
2023-01-05T01:37:04.849Z,77.80
2023-01-05T01:39:37.027Z,77.90
2023-01-05T01:42:09.734Z,77.70
2023-01-05T01:45:14.470Z,77.50
2023-01-05T01:47:47.504Z,77.50
2023-01-05T01:50:20.209Z,77.50
2023-01-05T01:52:56.993Z,77.40
2023-01-05T01:55:27.935Z,77.50
2023-01-05T01:58:01.233Z,77.50
2023-01-05T02:00:30.726Z,77.50
2023-01-05T02:02:59.945Z,77.30
2023-01-05T02:05:34.943Z,77.20
2023-01-05T02:08:13.360Z,77.10
2023-01-05T02:10:57.135Z,77.10
2023-01-05T02:13:42.394Z,77.10
2023-01-05T02:16:21.605Z,77.10
2023-01-05T02:19:09.033Z,77.10
2023-01-05T02:21:48.603Z,77.00
2023-01-05T02:24:51.897Z,76.90
2023-01-05T02:27:59.612Z,76.70
2023-01-05T02:31:00.037Z,76.60
2023-01-05T02:33:41.130Z,76.50
2023-01-05T02:36:24.971Z,76.40
2023-01-05T02:39:04.389Z,76.30
2023-01-05T02:41:41.679Z,76.30
2023-01-05T02:44:12.346Z,76.10
2023-01-05T02:46:44.717Z,76.10
2023-01-05T02:49:16.024Z,76.00
2023-01-05T02:51:53.456Z,75.80
2023-01-05T02:54:29.312Z,75.80
2023-01-05T02:57:04.639Z,75.70
2023-01-05T02:59:39.453Z,75.70
2023-01-05T03:02:14.403Z,75.80
2023-01-05T03:04:52.430Z,75.70
2023-01-05T03:07:27.328Z,75.80
2023-01-05T03:09:56.907Z,75.70
2023-01-05T03:12:49.797Z,75.70
2023-01-05T03:15:23.131Z,75.80
2023-01-05T03:17:56.890Z,75.60
2023-01-05T03:20:32.226Z,75.70
2023-01-05T03:23:23.988Z,75.80
2023-01-05T03:26:12.435Z,75.70
2023-01-05T03:29:04.964Z,75.70
2023-01-05T03:31:57.315Z,75.70
2023-01-05T03:34:56.463Z,75.70
2023-01-05T03:37:33.429Z,75.70
2023-01-05T03:40:08.583Z,75.70
2023-01-05T03:42:39.049Z,75.60
2023-01-05T03:45:14.465Z,75.60
2023-01-05T03:47:45.775Z,75.50
2023-01-05T03:50:17.117Z,75.60
2023-01-05T03:52:47.327Z,75.70
2023-01-05T03:55:20.574Z,75.50
2023-01-05T03:57:52.041Z,75.60
2023-01-05T04:00:22.751Z,75.70
2023-01-05T04:02:51.430Z,75.60
2023-01-05T04:05:22.500Z,75.70
2023-01-05T04:07:51.167Z,75.80
2023-01-05T04:10:20.053Z,75.80
2023-01-05T04:12:49.448Z,75.70
2023-01-05T04:15:20.082Z,75.70
2023-01-05T04:17:49.916Z,75.80
2023-01-05T04:20:20.396Z,75.70
2023-01-05T04:22:50.350Z,75.80
2023-01-05T04:25:21.329Z,75.70
2023-01-05T04:27:55.658Z,75.70
2023-01-05T04:30:34.181Z,75.60
2023-01-05T04:33:10.119Z,75.70
2023-01-05T04:38:35.718Z,75.60
2023-01-05T04:41:06.855Z,75.60
2023-01-05T04:43:37.873Z,75.70
2023-01-05T04:46:08.402Z,75.60
2023-01-05T04:51:37.346Z,75.70
2023-01-05T04:54:10.883Z,75.90
2023-01-05T04:56:42.306Z,75.80
2023-01-05T04:59:16.505Z,75.90
2023-01-05T05:02:06.022Z,75.90
2023-01-05T05:04:36.824Z,76.00
2023-01-05T05:07:27.270Z,76.00
2023-01-05T05:10:06.804Z,76.00
2023-01-05T05:12:37.451Z,76.00
2023-01-05T05:15:09.622Z,76.00
2023-01-05T05:17:56.141Z,75.90
2023-01-05T05:20:27.008Z,76.00
2023-01-05T05:22:59.576Z,76.00
2023-01-05T05:25:35.319Z,75.90
2023-01-05T05:28:08.304Z,75.90
2023-01-05T05:30:42.560Z,75.90
2023-01-05T05:33:19.036Z,75.90
2023-01-05T05:35:50.616Z,75.80
2023-01-05T05:38:24.406Z,75.90
2023-01-05T05:40:55.367Z,75.90
2023-01-05T05:43:27.572Z,75.80
2023-01-05T05:45:59.453Z,75.80
2023-01-05T05:48:45.527Z,75.70
2023-01-05T05:51:20.631Z,75.70
2023-01-05T05:53:56.684Z,75.80
2023-01-05T05:56:39.682Z,75.60
2023-01-05T05:59:15.974Z,75.60
2023-01-05T06:04:35.088Z,75.50
2023-01-05T06:07:09.174Z,75.50
2023-01-05T06:09:41.173Z,75.50
2023-01-05T06:12:24.867Z,75.40
2023-01-05T06:14:57.600Z,75.40
2023-01-05T06:17:32.049Z,75.40
2023-01-05T06:20:02.757Z,75.40
2023-01-05T06:22:34.063Z,75.40
2023-01-05T06:25:03.528Z,75.30
2023-01-05T06:27:44.417Z,75.40
2023-01-05T06:30:15.212Z,75.10
2023-01-05T06:32:46.011Z,75.00
2023-01-05T06:37:57.505Z,74.80
2023-01-05T06:40:27.173Z,74.80
2023-01-05T06:42:57.993Z,74.70
2023-01-05T06:45:29.551Z,74.70
2023-01-05T06:48:01.388Z,74.60
2023-01-05T06:50:32.172Z,74.40
2023-01-05T06:53:00.780Z,74.60
2023-01-05T06:55:30.910Z,74.60
2023-01-05T06:58:05.334Z,74.70
2023-01-05T07:00:35.896Z,74.80
2023-01-05T07:03:06.494Z,74.90
2023-01-05T07:05:36.071Z,74.90
2023-01-05T07:08:07.013Z,75.00
2023-01-05T07:10:37.584Z,74.90
2023-01-05T07:13:08.827Z,74.90
2023-01-05T07:15:39.589Z,74.90
2023-01-05T07:18:12.251Z,74.90
2023-01-05T07:20:40.366Z,74.90
2023-01-05T07:23:15.852Z,75.00
2023-01-05T07:25:49.905Z,75.00
2023-01-05T07:28:38.487Z,75.10
2023-01-05T07:31:09.006Z,75.10
2023-01-05T07:33:40.940Z,75.20
2023-01-05T07:36:14.376Z,75.30
2023-01-05T07:38:42.522Z,75.20
2023-01-05T07:41:10.970Z,75.20
2023-01-05T07:43:41.893Z,75.30
2023-01-05T07:46:11.291Z,75.30
2023-01-05T07:48:45.856Z,75.40
2023-01-05T07:51:14.057Z,75.30
2023-01-05T07:53:45.840Z,75.20
2023-01-05T07:56:14.510Z,75.40
2023-01-05T07:58:44.720Z,75.50
2023-01-05T08:01:18.527Z,75.60
2023-01-05T08:03:50.319Z,75.70
2023-01-05T08:06:23.364Z,75.90
2023-01-05T08:08:54.234Z,75.90
2023-01-05T08:11:27.070Z,75.80
2023-01-05T08:14:07.136Z,75.80
2023-01-05T08:16:45.701Z,75.80
2023-01-05T08:19:16.749Z,75.80
2023-01-05T08:21:44.950Z,75.90
2023-01-05T08:24:18.847Z,75.80
2023-01-05T08:26:55.791Z,75.90
2023-01-05T08:29:30.161Z,76.00
2023-01-05T08:32:01.333Z,76.10
2023-01-05T08:34:34.708Z,76.10
2023-01-05T08:37:04.608Z,76.40
2023-01-05T08:39:35.908Z,76.40
2023-01-05T08:42:05.274Z,76.20
2023-01-05T08:44:40.459Z,76.20
2023-01-05T08:47:10.824Z,76.10
2023-01-05T08:49:42.633Z,76.00
2023-01-05T08:52:10.778Z,76.10
2023-01-05T08:54:41.279Z,76.10
2023-01-05T08:59:54.981Z,75.70
2023-01-05T09:02:27.459Z,75.80
2023-01-05T09:04:59.092Z,75.80
2023-01-05T09:07:36.141Z,75.80
2023-01-05T09:10:13.307Z,75.70
2023-01-05T09:12:42.697Z,75.80
2023-01-05T09:15:15.734Z,76.10
2023-01-05T09:17:46.321Z,76.30
2023-01-05T09:20:14.849Z,76.50
2023-01-05T09:23:07.335Z,76.10
2023-01-05T09:25:37.802Z,75.80
2023-01-05T09:28:09.636Z,75.70
2023-01-05T09:30:45.652Z,75.40
2023-01-05T09:33:34.562Z,75.20
2023-01-05T09:36:08.268Z,75.10
2023-01-05T09:38:46.657Z,75.00
2023-01-05T09:41:26.116Z,74.90
2023-01-05T09:44:01.516Z,74.70
2023-01-05T09:46:34.861Z,74.80
2023-01-05T09:49:10.660Z,74.80
2023-01-05T09:51:41.572Z,74.70
2023-01-05T09:54:18.726Z,74.50
2023-01-05T09:59:43.596Z,74.10
2023-01-05T10:02:25.907Z,73.80
2023-01-05T10:04:59.169Z,73.90
2023-01-05T10:07:49.759Z,73.30
2023-01-05T10:10:48.160Z,73.20
2023-01-05T10:13:25.088Z,72.90
2023-01-05T10:16:01.187Z,72.60
2023-01-05T10:18:34.691Z,72.30
2023-01-05T10:21:13.802Z,72.30
2023-01-05T10:23:54.930Z,72.00
2023-01-05T10:26:39.819Z,71.40
2023-01-05T10:29:25.501Z,71.20
2023-01-05T10:32:00.647Z,71.10
2023-01-05T10:34:54.916Z,70.80
2023-01-05T10:37:45.644Z,70.50
2023-01-05T10:40:35.544Z,70.20
2023-01-05T10:43:38.519Z,69.60
2023-01-05T10:49:01.995Z,69.60
2023-01-05T10:51:37.286Z,69.80
2023-01-05T10:54:16.684Z,69.50
2023-01-05T10:56:45.124Z,69.80
2023-01-05T10:59:15.421Z,69.80
2023-01-05T11:01:46.184Z,69.80
2023-01-05T11:04:35.368Z,69.40
2023-01-05T11:07:06.979Z,69.00
2023-01-05T11:09:41.391Z,69.40
2023-01-05T11:12:18.481Z,70.00
2023-01-05T11:14:57.814Z,70.50
2023-01-05T11:17:29.063Z,70.80
2023-01-05T11:19:58.790Z,70.90
2023-01-05T11:22:35.597Z,71.10
2023-01-05T11:25:27.895Z,71.20
2023-01-05T11:28:08.150Z,71.40
2023-01-05T11:30:37.072Z,71.60
2023-01-05T11:33:16.230Z,71.60
2023-01-05T11:35:50.340Z,71.60
2023-01-05T11:38:26.316Z,71.60
2023-01-05T11:40:56.326Z,71.50
2023-01-05T11:43:26.243Z,71.40
2023-01-05T11:45:56.956Z,71.10
2023-01-05T11:48:28.567Z,70.90
2023-01-05T11:50:58.931Z,70.80
2023-01-05T11:53:40.014Z,70.70
2023-01-05T11:56:19.635Z,70.60
2023-01-05T11:58:49.050Z,70.40
2023-01-05T12:01:52.042Z,70.10
2023-01-05T12:04:51.097Z,70.10
2023-01-05T12:07:27.961Z,70.10
2023-01-05T12:10:04.813Z,69.90
2023-01-05T12:12:48.534Z,69.80
2023-01-05T12:15:47.777Z,68.80
2023-01-05T12:18:29.877Z,69.30
2023-01-05T12:21:05.709Z,68.80
2023-01-05T12:23:50.805Z,68.80
2023-01-05T12:26:26.805Z,68.70
2023-01-05T12:35:43.749Z,68.50
2023-01-05T12:38:25.303Z,68.60
2023-01-05T12:41:16.365Z,68.50
2023-01-05T12:44:01.642Z,68.30
2023-01-05T12:46:53.890Z,68.50
2023-01-05T12:49:27.332Z,68.00
2023-01-05T12:52:06.554Z,68.10
2023-01-05T12:54:41.715Z,68.10
2023-01-05T12:57:14.737Z,68.20
2023-01-05T12:59:51.815Z,68.20
2023-01-05T13:02:29.591Z,68.40
2023-01-05T13:05:03.747Z,68.60
2023-01-05T13:07:40.493Z,68.80
2023-01-05T13:10:20.878Z,68.70
2023-01-05T13:12:54.856Z,68.60
2023-01-05T13:15:30.912Z,68.50
2023-01-05T13:18:01.228Z,68.50
2023-01-05T13:20:37.315Z,68.50
2023-01-05T13:23:08.974Z,68.40
2023-01-05T13:25:46.279Z,68.30
2023-01-05T13:28:21.167Z,68.20
2023-01-05T13:31:09.843Z,68.20
2023-01-05T13:33:55.226Z,67.90
2023-01-05T13:36:36.098Z,68.00
2023-01-05T13:39:27.797Z,67.90
2023-01-05T13:42:27.338Z,67.90
2023-01-05T13:45:16.683Z,67.80
2023-01-05T13:48:12.559Z,67.90
2023-01-05T13:51:16.609Z,68.00
2023-01-05T13:53:46.675Z,67.90
2023-01-05T13:56:19.862Z,67.90
2023-01-05T13:58:50.708Z,67.70
2023-01-05T14:01:21.352Z,67.60
2023-01-05T14:03:55.427Z,67.90
2023-01-05T14:06:27.762Z,67.70
2023-01-05T14:09:00.150Z,67.80
2023-01-05T14:11:29.539Z,67.90
2023-01-05T14:13:59.691Z,67.70
2023-01-05T14:16:46.996Z,67.90
2023-01-05T14:19:22.602Z,67.80
2023-01-05T14:22:22.542Z,68.20
2023-01-05T14:24:51.129Z,68.30
2023-01-05T14:27:20.183Z,68.20
2023-01-05T14:30:21.300Z,68.00
2023-01-05T14:32:55.284Z,68.10
2023-01-05T14:35:31.874Z,68.10
2023-01-05T14:38:03.093Z,68.20
2023-01-05T14:40:40.593Z,68.30
2023-01-05T14:43:23.686Z,68.40
2023-01-05T14:46:02.542Z,68.40
2023-01-05T14:48:33.148Z,68.30
2023-01-05T14:51:23.814Z,68.30
2023-01-05T14:53:54.277Z,68.50
2023-01-05T14:56:26.109Z,68.60
2023-01-05T14:59:05.798Z,68.60
2023-01-05T15:04:17.144Z,68.90
2023-01-05T15:07:07.740Z,68.70
2023-01-05T15:09:51.756Z,68.90
2023-01-05T15:12:41.260Z,69.00
2023-01-05T15:15:37.528Z,69.10
2023-01-05T15:18:39.442Z,69.30
2023-01-05T15:21:24.476Z,69.10
2023-01-05T15:24:45.127Z,69.10
2023-01-05T15:27:31.887Z,69.10
2023-01-05T15:30:14.276Z,69.20
2023-01-05T15:32:45.882Z,69.20
2023-01-05T15:35:19.343Z,69.20
2023-01-05T15:37:48.892Z,69.30
2023-01-05T15:40:33.596Z,69.20
2023-01-05T15:43:05.368Z,68.90
2023-01-05T15:45:35.664Z,68.90
2023-01-05T15:48:11.227Z,68.90
2023-01-05T15:50:46.418Z,69.00
2023-01-05T15:53:26.600Z,69.00
2023-01-05T15:55:59.122Z,69.00
2023-01-05T15:58:29.725Z,69.30
2023-01-05T16:01:05.603Z,69.40
2023-01-05T16:03:35.548Z,69.40
2023-01-05T16:06:07.565Z,69.70
2023-01-05T16:08:38.227Z,69.50
2023-01-05T16:11:09.759Z,69.80
2023-01-05T16:13:41.908Z,69.80
2023-01-05T16:16:43.207Z,70.00
2023-01-05T16:19:12.746Z,70.10
2023-01-05T16:21:44.318Z,70.10
2023-01-05T16:24:19.708Z,70.30
2023-01-05T16:26:51.391Z,70.40
2023-01-05T16:29:34.875Z,70.50
2023-01-05T16:32:03.239Z,70.60
2023-01-05T16:34:33.153Z,70.60
2023-01-05T16:37:03.662Z,70.60
2023-01-05T16:39:38.215Z,70.80
2023-01-05T16:42:39.932Z,70.90
2023-01-05T16:45:11.189Z,71.00
2023-01-05T16:47:41.319Z,71.20
2023-01-05T16:50:53.838Z,71.30
2023-01-05T16:53:24.517Z,71.30
2023-01-05T16:55:55.103Z,71.50
2023-01-05T16:58:38.310Z,71.60
2023-01-05T17:01:27.198Z,71.70
2023-01-05T17:03:55.564Z,71.70
2023-01-05T17:06:27.612Z,71.90
2023-01-05T17:08:57.588Z,72.10
2023-01-05T17:11:29.554Z,72.20
2023-01-05T17:13:59.161Z,72.20
2023-01-05T17:16:27.361Z,72.20
2023-01-05T17:18:55.713Z,72.10
2023-01-05T17:21:28.462Z,72.30
2023-01-05T17:23:58.918Z,72.40
2023-01-05T17:26:33.906Z,72.40
2023-01-05T17:29:04.991Z,72.40
2023-01-05T17:31:33.192Z,72.40
2023-01-05T17:34:01.564Z,72.40
2023-01-05T17:36:32.982Z,72.60
2023-01-05T17:39:01.712Z,72.70
2023-01-05T17:41:29.938Z,72.80
2023-01-05T17:43:58.082Z,72.90
2023-01-05T17:46:31.061Z,73.00
2023-01-05T17:49:00.667Z,73.20
2023-01-05T17:51:29.291Z,73.20
2023-01-05T17:53:57.709Z,73.10
2023-01-05T17:56:26.103Z,73.10
2023-01-05T17:58:54.507Z,73.00
2023-01-05T18:01:22.881Z,73.00
2023-01-05T18:03:52.511Z,72.90
2023-01-05T18:06:20.629Z,73.10
2023-01-05T18:08:49.391Z,73.30
2023-01-05T18:11:17.961Z,73.40
2023-01-05T18:13:46.380Z,73.60
2023-01-05T18:16:15.330Z,73.60
2023-01-05T18:18:43.867Z,73.70
2023-01-05T18:21:13.464Z,73.80
2023-01-05T18:23:41.623Z,73.90
2023-01-05T18:26:11.312Z,73.90
2023-01-05T18:28:39.805Z,73.90
2023-01-05T18:31:12.327Z,74.10
2023-01-05T18:33:40.583Z,74.30
2023-01-05T18:36:10.062Z,74.30
2023-01-05T18:38:39.930Z,74.40
2023-01-05T18:41:08.302Z,74.40
2023-01-05T18:43:36.445Z,74.60
2023-01-05T18:46:04.928Z,74.70
2023-01-05T18:48:33.621Z,74.70
2023-01-05T18:51:05.478Z,74.80
2023-01-05T18:53:33.632Z,75.00
2023-01-05T18:56:07.508Z,75.00
2023-01-05T18:58:35.887Z,75.20
2023-01-05T19:01:09.072Z,75.10
2023-01-05T19:03:37.217Z,75.30
2023-01-05T19:06:14.947Z,75.40
2023-01-05T19:08:48.825Z,75.50
2023-01-05T19:11:20.457Z,75.50
2023-01-05T19:13:49.962Z,75.60
2023-01-05T19:16:19.459Z,75.70
2023-01-05T19:18:51.708Z,75.60
2023-01-05T19:21:20.291Z,75.70
2023-01-05T19:23:49.915Z,75.70
2023-01-05T19:26:19.370Z,75.70
2023-01-05T19:28:47.565Z,75.80
2023-01-05T19:31:16.459Z,75.70
2023-01-05T19:33:45.300Z,75.80
2023-01-05T19:36:15.119Z,75.90
2023-01-05T19:38:43.996Z,76.00
2023-01-05T19:41:14.387Z,76.00
2023-01-05T19:43:45.014Z,76.00
2023-01-05T19:46:14.881Z,76.20
2023-01-05T19:48:45.053Z,76.10
2023-01-05T19:51:15.177Z,76.10
2023-01-05T19:53:44.668Z,76.10
2023-01-05T19:56:16.008Z,76.10
2023-01-05T19:58:45.517Z,76.20
2023-01-05T20:01:16.887Z,76.10
2023-01-05T20:03:47.131Z,76.10
2023-01-05T20:06:18.089Z,76.00
2023-01-05T20:08:52.335Z,76.10
2023-01-05T20:11:35.632Z,76.00
2023-01-05T20:14:08.584Z,75.90
2023-01-05T20:16:37.382Z,75.90
2023-01-05T20:19:06.330Z,75.90
2023-01-05T20:21:34.546Z,75.80
2023-01-05T20:24:03.978Z,75.90
2023-01-05T20:26:32.496Z,76.00
2023-01-05T20:29:01.443Z,76.00
2023-01-05T20:31:33.504Z,76.00
2023-01-05T20:34:04.056Z,76.10
2023-01-05T20:36:32.744Z,76.10
2023-01-05T20:39:03.385Z,76.10
2023-01-05T20:41:32.749Z,76.00
2023-01-05T20:44:01.003Z,75.90
2023-01-05T20:46:34.386Z,75.90
2023-01-05T20:49:02.714Z,75.90
2023-01-05T20:51:31.168Z,75.80
2023-01-05T20:54:01.875Z,75.90
2023-01-05T20:56:33.582Z,75.70
2023-01-05T20:59:01.808Z,75.80
2023-01-05T21:01:36.601Z,75.90
2023-01-05T21:04:05.016Z,75.90
2023-01-05T21:06:35.768Z,75.90
2023-01-05T21:09:06.300Z,76.00
2023-01-05T21:11:34.733Z,75.90
2023-01-05T21:14:06.033Z,75.90
2023-01-05T21:16:40.261Z,76.00
2023-01-05T21:19:11.500Z,75.90
2023-01-05T21:21:39.880Z,75.90
2023-01-05T21:24:08.778Z,76.00
2023-01-05T21:26:37.033Z,76.10
2023-01-05T21:29:06.902Z,76.10
2023-01-05T21:31:37.997Z,76.30
2023-01-05T21:34:06.393Z,76.60
2023-01-05T21:36:38.358Z,76.70
2023-01-05T21:39:08.787Z,76.60
2023-01-05T21:41:56.319Z,76.50
2023-01-05T21:44:24.812Z,76.50
2023-01-05T21:46:54.411Z,76.60
2023-01-05T21:49:22.551Z,76.60
2023-01-05T21:52:08.179Z,76.60
2023-01-05T21:54:54.249Z,76.70
2023-01-05T21:57:22.616Z,77.00
2023-01-05T21:59:50.857Z,76.90
2023-01-05T22:02:20.366Z,77.00
2023-01-05T22:04:48.559Z,77.10
2023-01-05T22:07:16.726Z,77.10
2023-01-05T22:09:44.902Z,77.10
2023-01-05T22:12:13.064Z,77.20
2023-01-05T22:14:41.291Z,77.20
2023-01-05T22:17:10.770Z,77.30
2023-01-05T22:19:40.326Z,77.40
2023-01-05T22:22:08.551Z,77.30
2023-01-05T22:24:36.659Z,77.30
2023-01-05T22:27:05.007Z,77.20
2023-01-05T22:29:33.153Z,77.20
2023-01-05T22:32:02.963Z,77.20
2023-01-05T22:34:31.601Z,77.20
2023-01-05T22:37:02.147Z,77.30
2023-01-05T22:39:31.184Z,77.40
2023-01-05T22:42:00.688Z,77.50
2023-01-05T22:44:29.785Z,77.60
2023-01-05T22:46:59.674Z,77.60
2023-01-05T22:49:29.030Z,77.60
2023-01-05T22:51:58.395Z,77.60
2023-01-05T22:54:28.701Z,77.70
2023-01-05T22:56:58.114Z,77.80
2023-01-05T22:59:28.627Z,77.80
2023-01-05T23:01:58.195Z,77.80
2023-01-05T23:04:27.487Z,77.80
2023-01-05T23:06:56.094Z,77.80
2023-01-05T23:09:25.733Z,77.80
2023-01-05T23:11:56.937Z,78.00
2023-01-05T23:14:26.132Z,78.10
2023-01-05T23:16:55.369Z,78.20
2023-01-05T23:19:25.161Z,78.10
2023-01-05T23:21:54.972Z,78.20
2023-01-05T23:24:23.815Z,78.30
2023-01-05T23:26:52.901Z,78.20
2023-01-05T23:29:25.073Z,78.30
2023-01-05T23:31:55.876Z,78.40
2023-01-05T23:34:27.969Z,78.50
2023-01-05T23:36:56.969Z,78.50
2023-01-05T23:39:26.293Z,78.60
2023-01-05T23:41:55.943Z,78.60
2023-01-05T23:44:26.871Z,78.70
2023-01-05T23:46:56.135Z,78.70
2023-01-05T23:49:25.431Z,78.90
2023-01-05T23:51:54.683Z,78.70
2023-01-05T23:54:23.628Z,78.90
2023-01-05T23:56:52.945Z,79.10
2023-01-05T23:59:22.057Z,79.00
